Time;durP1;ratioP1;P1;durP2;ratioP2;P2;SDS_P1;SDS_P2;PMS_P1;PMS_P2;Temp;Humidity;BMP_temperature;BMP_pressure;BME280_temperature;BME280_humidity;BME280_pressure;Samples;Min_cycle;Max_cycle;Signal;HPM_P1;HPM_P2
2021/04/10 00:02:11;;;;;;;1.52;1.42;;;1.90;99.90;;;;;;4390971;32;20168;-56
2021/04/10 00:04:37;;;;;;;1.67;1.58;;;1.90;99.90;;;;;;4382644;32;20074;-56
2021/04/10 00:07:03;;;;;;;1.60;1.50;;;1.90;99.90;;;;;;4385300;32;20054;-55
2021/04/10 00:09:29;;;;;;;2.00;1.80;;;2.00;99.90;;;;;;4375137;32;20077;-56
2021/04/10 00:11:55;;;;;;;2.58;1.90;;;1.90;99.90;;;;;;4378381;32;20073;-57
2021/04/10 00:14:22;;;;;;;2.22;1.90;;;2.00;99.90;;;;;;4381665;32;20086;-57
2021/04/10 00:16:48;;;;;;;3.10;2.10;;;2.10;99.90;;;;;;4370855;32;20524;-56
2021/04/10 00:19:14;;;;;;;2.47;1.87;;;2.00;99.90;;;;;;4383945;32;20535;-57
2021/04/10 00:21:40;;;;;;;1.90;1.80;;;2.10;99.90;;;;;;4388792;32;20441;-55
2021/04/10 00:24:08;;;;;;;2.10;1.90;;;2.10;99.90;;;;;;4379281;32;20489;-56
2021/04/10 00:26:34;;;;;;;2.58;2.00;;;2.00;99.90;;;;;;4388252;32;20497;-56
2021/04/10 00:29:01;;;;;;;2.58;2.10;;;2.10;99.90;;;;;;4366508;32;20085;-57
2021/04/10 00:31:27;;;;;;;2.60;2.33;;;2.10;99.90;;;;;;4387461;32;20076;-57
2021/04/10 00:33:53;;;;;;;3.83;2.47;;;2.10;99.90;;;;;;4358036;32;20599;-55
2021/04/10 00:36:19;;;;;;;2.62;2.42;;;2.10;99.90;;;;;;4384774;32;20084;-56
2021/04/10 00:38:45;;;;;;;3.30;2.60;;;2.10;99.90;;;;;;4372989;32;20496;-56
2021/04/10 00:41:12;;;;;;;3.05;2.47;;;2.10;99.90;;;;;;4363996;32;20097;-56
2021/04/10 00:43:38;;;;;;;3.47;2.60;;;2.10;99.90;;;;;;4375795;32;20109;-57
2021/04/10 00:46:08;;;;;;;3.58;3.00;;;2.10;99.90;;;;;;4388745;32;20070;-57
2021/04/10 00:48:35;;;;;;;3.53;2.90;;;2.10;99.90;;;;;;4357612;32;20081;-56
2021/04/10 00:51:01;;;;;;;4.00;2.85;;;2.10;99.90;;;;;;4383164;32;20084;-55
2021/04/10 00:53:28;;;;;;;3.90;3.20;;;2.10;99.90;;;;;;4374535;32;20066;-56
2021/04/10 00:55:57;;;;;;;4.20;3.08;;;2.10;99.90;;;;;;4354165;32;20170;-57
2021/04/10 00:58:24;;;;;;;3.90;3.10;;;2.10;99.90;;;;;;4361801;32;20070;-55
2021/04/10 01:00:50;;;;;;;3.60;2.67;;;2.10;99.90;;;;;;4370638;32;20081;-56
2021/04/10 01:03:16;;;;;;;4.87;3.17;;;2.10;99.90;;;;;;4381935;32;20441;-55
2021/04/10 01:05:42;;;;;;;4.43;3.10;;;2.10;99.90;;;;;;4375639;32;20453;-56
2021/04/10 01:08:09;;;;;;;3.67;3.12;;;2.10;99.90;;;;;;4378687;32;20169;-56
2021/04/10 01:10:35;;;;;;;4.07;3.08;;;2.10;99.90;;;;;;4385887;32;20074;-56
2021/04/10 01:14:00;;;;;;;4.97;3.60;;;2.10;99.90;;;;;;4367621;32;20082;-57
2021/04/10 01:16:33;;;;;;;4.78;3.55;;;2.00;99.90;;;;;;4380089;32;20467;-57
2021/04/10 01:19:20;;;;;;;4.90;3.45;;;2.10;99.90;;;;;;4383064;32;20084;-56
2021/04/10 01:22:05;;;;;;;5.22;3.78;;;2.00;99.90;;;;;;4387913;32;20165;-56
2021/04/10 01:24:58;;;;;;;4.75;3.60;;;2.10;99.90;;;;;;4369736;32;20150;-56
2021/04/10 01:27:38;;;;;;;4.55;3.50;;;2.10;99.90;;;;;;4381013;32;20082;-57
2021/04/10 01:30:15;;;;;;;4.25;3.20;;;2.10;99.90;;;;;;4378549;32;20076;-56
2021/04/10 01:32:58;;;;;;;5.37;3.70;;;2.10;99.90;;;;;;4385511;32;20082;-56
2021/04/10 01:35:40;;;;;;;4.90;3.97;;;2.10;99.90;;;;;;4385113;32;20079;-56
2021/04/10 01:38:13;;;;;;;7.35;4.05;;;2.00;99.90;;;;;;4364677;32;20070;-56
2021/04/10 01:40:39;;;;;;;6.22;4.15;;;2.10;99.90;;;;;;4381304;32;20070;-56
2021/04/10 01:43:06;;;;;;;5.25;4.18;;;2.00;99.90;;;;;;4361685;32;20089;-55
2021/04/10 01:45:32;;;;;;;5.57;4.40;;;2.00;99.90;;;;;;4379642;32;20444;-56
2021/04/10 01:48:03;;;;;;;5.80;4.28;;;2.00;99.90;;;;;;4363209;32;20080;-57
2021/04/10 01:50:29;;;;;;;5.45;4.43;;;2.00;99.90;;;;;;4379878;32;20169;-55
2021/04/10 01:52:55;;;;;;;6.40;4.22;;;2.00;99.90;;;;;;4358244;32;20152;-57
2021/04/10 01:55:22;;;;;;;5.60;3.80;;;2.10;99.90;;;;;;4363419;32;20070;-56
2021/04/10 01:57:49;;;;;;;5.95;4.40;;;2.00;99.90;;;;;;4377805;32;20081;-56
2021/04/10 02:00:17;;;;;;;5.82;4.35;;;2.00;99.90;;;;;;4366654;32;20175;-56
2021/04/10 02:02:43;;;;;;;6.45;4.50;;;2.10;99.90;;;;;;4350297;32;20167;-57
2021/04/10 02:05:12;;;;;;;6.10;4.68;;;2.00;99.90;;;;;;4371656;32;20070;-57
2021/04/10 02:07:42;;;;;;;7.03;5.47;;;2.00;99.90;;;;;;4366711;32;20100;-57
2021/04/10 02:10:09;;;;;;;7.22;4.70;;;2.10;99.90;;;;;;4362888;32;20061;-57
2021/04/10 02:12:35;;;;;;;5.97;5.00;;;2.10;99.90;;;;;;4366014;32;20146;-56
2021/04/10 02:15:03;;;;;;;6.57;5.25;;;2.10;99.90;;;;;;4355467;32;20515;-56
2021/04/10 02:17:29;;;;;;;5.82;4.37;;;2.10;99.90;;;;;;4386245;32;20069;-56
2021/04/10 02:19:56;;;;;;;6.53;5.37;;;2.10;99.90;;;;;;4365808;32;20159;-57
2021/04/10 02:22:23;;;;;;;7.32;5.15;;;2.10;99.90;;;;;;4387831;32;20074;-55
2021/04/10 02:24:50;;;;;;;6.57;5.37;;;2.20;99.90;;;;;;4375196;32;20088;-57
2021/04/10 02:27:16;;;;;;;6.95;5.47;;;2.10;99.90;;;;;;4385762;32;20199;-56
2021/04/10 02:29:43;;;;;;;7.35;5.35;;;2.10;99.90;;;;;;4388034;32;20072;-57
2021/04/10 02:32:39;;;;;;;7.18;5.90;;;2.20;99.90;;;;;;4375089;32;20486;-56
2021/04/10 02:35:24;;;;;;;7.20;5.15;;;2.20;99.90;;;;;;4383638;32;20062;-56
2021/04/10 02:37:51;;;;;;;6.70;6.00;;;2.20;99.90;;;;;;4387731;32;20543;-56
2021/04/10 02:40:23;;;;;;;7.40;5.60;;;2.20;99.90;;;;;;4353800;32;20492;-56
2021/04/10 02:42:49;;;;;;;7.43;6.03;;;2.20;99.90;;;;;;4354103;32;20057;-56
2021/04/10 02:45:20;;;;;;;8.38;6.15;;;2.20;99.90;;;;;;4378135;32;20062;-55
2021/04/10 02:47:47;;;;;;;8.63;6.65;;;2.30;99.90;;;;;;4365823;32;20113;-58
2021/04/10 02:50:15;;;;;;;8.95;6.22;;;2.30;99.90;;;;;;4393838;32;20077;-56
2021/04/10 02:52:44;;;;;;;8.90;6.47;;;2.30;99.90;;;;;;4350005;32;20178;-57
2021/04/10 02:55:11;;;;;;;7.47;5.57;;;2.40;99.90;;;;;;4378325;32;20076;-55
2021/04/10 02:57:38;;;;;;;8.70;5.70;;;2.40;99.90;;;;;;4375518;32;20161;-57
2021/04/10 03:00:06;;;;;;;9.25;6.80;;;2.40;99.90;;;;;;4365908;32;20073;-56
2021/04/10 03:02:35;;;;;;;9.43;7.32;;;2.40;99.90;;;;;;4373510;32;20081;-56
2021/04/10 03:05:01;;;;;;;9.43;6.57;;;2.40;99.90;;;;;;4357773;32;20153;-57
2021/04/10 03:07:27;;;;;;;10.15;7.20;;;2.50;99.90;;;;;;4366493;32;20516;-55
2021/04/10 03:09:53;;;;;;;11.43;8.45;;;2.50;99.90;;;;;;4374685;32;20172;-55
2021/04/10 03:12:21;;;;;;;9.82;7.45;;;2.50;99.90;;;;;;4365779;32;20089;-56
2021/04/10 03:14:48;;;;;;;9.30;6.55;;;2.50;99.90;;;;;;4384490;32;20189;-56
2021/04/10 03:17:25;;;;;;;11.52;9.20;;;2.60;99.90;;;;;;4376248;32;20088;-55
2021/04/10 03:19:51;;;;;;;10.60;8.65;;;2.60;99.90;;;;;;4381934;32;20061;-56
2021/04/10 03:22:17;;;;;;;11.63;8.48;;;2.60;99.90;;;;;;4378890;32;20200;-56
2021/04/10 03:24:44;;;;;;;10.98;7.65;;;2.60;99.90;;;;;;4360825;32;20074;-56
2021/04/10 03:27:11;;;;;;;11.52;9.48;;;2.70;99.90;;;;;;4361183;32;20515;-56
2021/04/10 03:29:37;;;;;;;10.38;7.45;;;2.60;99.90;;;;;;4371342;32;20563;-56
2021/04/10 03:32:05;;;;;;;10.95;8.00;;;2.80;99.90;;;;;;4370321;32;20077;-57
2021/04/10 03:34:32;;;;;;;11.88;8.15;;;2.80;99.90;;;;;;4373561;32;20619;-56
2021/04/10 03:36:58;;;;;;;11.27;8.27;;;2.80;99.90;;;;;;4364678;32;20531;-57
2021/04/10 03:39:24;;;;;;;12.00;9.80;;;2.80;99.90;;;;;;4366899;32;20087;-56
2021/04/10 03:41:50;;;;;;;11.95;9.30;;;2.80;99.90;;;;;;4357488;32;20076;-56
2021/04/10 03:44:16;;;;;;;11.85;9.18;;;2.80;99.90;;;;;;4381315;32;20066;-56
2021/04/10 03:46:42;;;;;;;12.70;8.63;;;2.90;99.90;;;;;;4390067;32;20151;-56
2021/04/10 03:49:09;;;;;;;11.90;8.52;;;3.00;99.90;;;;;;4389145;32;20146;-56
2021/04/10 03:51:35;;;;;;;12.40;9.88;;;3.00;99.90;;;;;;4369010;32;20503;-56
2021/04/10 03:54:02;;;;;;;13.55;8.57;;;3.10;99.90;;;;;;4383873;32;20090;-56
2021/04/10 03:56:28;;;;;;;10.77;7.07;;;3.10;99.90;;;;;;4387790;32;20562;-56
2021/04/10 03:58:54;;;;;;;11.10;7.80;;;3.10;99.90;;;;;;4378009;32;20092;-56
2021/04/10 04:01:20;;;;;;;14.48;9.00;;;3.10;99.90;;;;;;4379646;32;20543;-56
2021/04/10 04:03:47;;;;;;;10.93;6.93;;;3.10;99.90;;;;;;4384343;32;20555;-57
2021/04/10 04:06:13;;;;;;;12.88;11.00;;;3.20;99.90;;;;;;4396010;32;20077;-57
2021/04/10 04:08:39;;;;;;;13.73;10.57;;;3.10;99.90;;;;;;4375438;32;20525;-57
2021/04/10 04:11:06;;;;;;;14.30;10.15;;;3.20;99.90;;;;;;4376393;32;20161;-56
2021/04/10 04:13:32;;;;;;;12.85;10.40;;;3.10;99.90;;;;;;4376304;32;20076;-57
2021/04/10 04:15:58;;;;;;;10.98;7.62;;;3.20;99.90;;;;;;4384551;32;20074;-57
2021/04/10 04:18:24;;;;;;;11.48;8.23;;;3.20;99.90;;;;;;4393432;32;20558;-57
2021/04/10 04:20:50;;;;;;;12.98;9.98;;;3.30;99.90;;;;;;4390703;32;20086;-56
2021/04/10 04:23:16;;;;;;;13.73;9.20;;;3.30;99.90;;;;;;4388898;32;20082;-56
2021/04/10 04:25:43;;;;;;;12.68;8.43;;;3.30;99.90;;;;;;4391125;32;20167;-57
2021/04/10 04:28:09;;;;;;;11.45;7.80;;;3.40;99.90;;;;;;4368527;32;20085;-56
2021/04/10 04:30:35;;;;;;;13.05;10.25;;;3.40;99.90;;;;;;4385314;32;20226;-57
2021/04/10 04:33:01;;;;;;;13.62;10.55;;;3.40;99.90;;;;;;4385474;32;20260;-57
2021/04/10 04:35:27;;;;;;;13.05;10.40;;;3.30;99.90;;;;;;4375335;32;20070;-56
2021/04/10 04:37:53;;;;;;;13.62;10.18;;;3.40;99.90;;;;;;4379237;32;20522;-56
2021/04/10 04:40:19;;;;;;;12.82;10.25;;;3.40;99.90;;;;;;4389482;32;20452;-57
2021/04/10 04:42:46;;;;;;;13.52;9.90;;;3.50;99.90;;;;;;4384383;32;20078;-55
2021/04/10 04:45:12;;;;;;;11.75;8.57;;;3.50;99.90;;;;;;4384968;32;20082;-57
2021/04/10 04:47:38;;;;;;;12.88;8.40;;;3.50;99.90;;;;;;4389584;32;20093;-55
2021/04/10 04:50:05;;;;;;;9.02;6.15;;;3.60;99.90;;;;;;4381555;32;20070;-55
2021/04/10 04:52:32;;;;;;;11.80;9.05;;;3.60;99.90;;;;;;4388965;32;20059;-57
2021/04/10 04:54:58;;;;;;;11.57;9.57;;;3.70;99.90;;;;;;4359581;32;20088;-56
2021/04/10 04:57:24;;;;;;;10.52;9.43;;;3.60;99.90;;;;;;4369279;32;20057;-61
2021/04/10 04:59:50;;;;;;;12.27;9.82;;;3.70;99.90;;;;;;4391649;32;20070;-59
2021/04/10 05:02:16;;;;;;;11.35;9.57;;;3.70;99.90;;;;;;4378381;32;20572;-57
2021/04/10 05:04:43;;;;;;;13.23;11.02;;;3.70;99.90;;;;;;4372630;32;20475;-57
2021/04/10 05:07:09;;;;;;;12.35;8.40;;;3.70;99.90;;;;;;4387097;32;20081;-56
2021/04/10 05:09:35;;;;;;;12.35;8.75;;;3.80;99.90;;;;;;4382522;32;20106;-58
2021/04/10 05:12:01;;;;;;;10.27;7.05;;;3.90;99.90;;;;;;4379223;32;20082;-55
2021/04/10 05:14:27;;;;;;;11.85;8.77;;;3.90;99.90;;;;;;4373713;32;20080;-55
2021/04/10 05:16:53;;;;;;;13.60;9.70;;;3.90;99.90;;;;;;4386993;32;20220;-56
2021/04/10 05:19:19;;;;;;;13.55;8.25;;;3.90;99.90;;;;;;4386356;32;20073;-57
2021/04/10 05:21:46;;;;;;;11.43;7.50;;;4.00;99.90;;;;;;4378758;32;20524;-57
2021/04/10 05:24:12;;;;;;;11.15;8.32;;;4.10;99.90;;;;;;4390299;32;20063;-55
2021/04/10 05:26:38;;;;;;;10.95;8.90;;;4.00;99.90;;;;;;4381552;32;20088;-56
2021/04/10 05:29:04;;;;;;;10.98;7.62;;;4.00;99.90;;;;;;4389192;32;20085;-56
2021/04/10 05:31:31;;;;;;;10.35;8.60;;;4.10;99.90;;;;;;4379695;32;20090;-56
2021/04/10 05:33:57;;;;;;;11.70;8.73;;;4.20;99.90;;;;;;4379576;32;20163;-55
2021/04/10 05:36:23;;;;;;;10.25;8.15;;;4.30;99.90;;;;;;4383412;32;20512;-56
2021/04/10 05:38:49;;;;;;;9.65;6.65;;;4.30;99.90;;;;;;4383854;32;20093;-55
2021/04/10 05:41:17;;;;;;;9.43;5.80;;;4.40;99.90;;;;;;4368693;32;20598;-56
2021/04/10 05:43:43;;;;;;;5.37;3.60;;;4.40;99.90;;;;;;4374842;32;20149;-56
2021/04/10 05:46:09;;;;;;;6.68;4.62;;;4.40;99.90;;;;;;4366168;32;20065;-56
2021/04/10 05:48:36;;;;;;;10.52;6.85;;;4.40;99.90;;;;;;4373186;32;20070;-56
2021/04/10 05:51:02;;;;;;;10.45;7.65;;;4.40;99.90;;;;;;4358273;32;20080;-55
2021/04/10 05:53:28;;;;;;;10.73;6.87;;;4.30;99.90;;;;;;4384086;32;20563;-56
2021/04/10 05:55:55;;;;;;;10.88;7.07;;;4.40;99.90;;;;;;4366015;32;20096;-57
2021/04/10 05:58:21;;;;;;;9.82;5.90;;;4.50;99.90;;;;;;4374497;32;20062;-55
2021/04/10 06:00:47;;;;;;;7.20;4.18;;;4.60;99.90;;;;;;4371512;32;20071;-56
2021/04/10 06:03:16;;;;;;;9.88;4.30;;;4.70;99.90;;;;;;4385969;32;20078;-56
2021/04/10 06:05:46;;;;;;;12.60;9.38;;;4.80;99.90;;;;;;4365547;32;20081;-55
2021/04/10 06:08:13;;;;;;;12.52;7.87;;;4.80;99.90;;;;;;4378433;32;20141;-55
2021/04/10 06:10:40;;;;;;;9.90;7.18;;;4.80;99.90;;;;;;4362511;32;20426;-55
2021/04/10 06:13:06;;;;;;;9.77;6.85;;;4.80;99.90;;;;;;4363530;32;20154;-56
2021/04/10 06:15:32;;;;;;;10.10;6.45;;;4.80;99.90;;;;;;4379395;32;20507;-57
2021/04/10 06:17:58;;;;;;;8.90;6.28;;;4.90;99.90;;;;;;4363994;32;20077;-56
2021/04/10 06:20:25;;;;;;;9.82;6.97;;;5.00;99.90;;;;;;4373755;32;20504;-57
2021/04/10 06:22:51;;;;;;;9.00;6.18;;;5.00;99.90;;;;;;4382828;32;20177;-57
2021/04/10 06:25:17;;;;;;;11.30;7.10;;;5.00;99.90;;;;;;4367779;32;20086;-56
2021/04/10 06:27:44;;;;;;;10.35;7.72;;;5.00;99.90;;;;;;4385805;32;20936;-56
2021/04/10 06:30:11;;;;;;;9.65;6.43;;;5.00;99.90;;;;;;4362670;32;20065;-56
2021/04/10 06:32:37;;;;;;;8.23;7.00;;;5.30;99.90;;;;;;4374915;32;20088;-56
2021/04/10 06:35:04;;;;;;;10.23;7.40;;;5.20;99.90;;;;;;4382228;32;20085;-55
2021/04/10 06:37:31;;;;;;;9.23;6.90;;;5.30;99.90;;;;;;4366584;32;20097;-57
2021/04/10 06:39:57;;;;;;;10.05;8.10;;;5.40;99.90;;;;;;4387715;32;20116;-56
2021/04/10 06:42:23;;;;;;;8.82;6.00;;;5.30;99.90;;;;;;4376399;32;20077;-56
2021/04/10 06:44:50;;;;;;;9.73;7.80;;;5.40;99.90;;;;;;4356818;32;20601;-55
2021/04/10 06:47:21;;;;;;;7.65;5.85;;;5.40;99.90;;;;;;4367453;32;20570;-56
2021/04/10 06:49:47;;;;;;;11.07;8.48;;;5.50;99.90;;;;;;4387426;32;20162;-56
2021/04/10 06:52:15;;;;;;;10.13;7.22;;;5.50;99.90;;;;;;4365314;32;20085;-57
2021/04/10 06:54:42;;;;;;;9.57;7.25;;;5.60;99.90;;;;;;4371597;32;20235;-57
2021/04/10 06:57:19;;;;;;;9.68;7.30;;;5.70;99.90;;;;;;4371115;32;20072;-57
2021/04/10 07:00:04;;;;;;;8.68;7.28;;;5.70;99.90;;;;;;4386853;32;20552;-57
2021/04/10 07:02:32;;;;;;;8.30;6.15;;;5.90;99.90;;;;;;4380630;32;20173;-58
2021/04/10 07:04:59;;;;;;;8.32;5.45;;;5.90;99.90;;;;;;4383701;32;20089;-57
2021/04/10 07:07:26;;;;;;;10.30;7.30;;;6.10;99.90;;;;;;4386362;32;20082;-56
2021/04/10 07:09:52;;;;;;;8.60;6.87;;;6.00;99.90;;;;;;4364959;32;20554;-57
2021/04/10 07:12:19;;;;;;;9.00;7.20;;;6.10;99.90;;;;;;4374037;32;20472;-57
2021/04/10 07:14:45;;;;;;;12.18;7.07;;;6.40;99.90;;;;;;4368470;32;20082;-56
2021/04/10 07:17:15;;;;;;;7.53;4.68;;;6.60;99.90;;;;;;4375770;32;20062;-56
2021/04/10 07:19:41;;;;;;;8.52;6.90;;;6.80;99.90;;;;;;4382709;32;20065;-57
2021/04/10 07:22:07;;;;;;;9.07;6.60;;;6.50;99.90;;;;;;4364761;32;20054;-56
2021/04/10 07:24:43;;;;;;;7.70;5.55;;;6.70;99.90;;;;;;4384532;32;20124;-57
2021/04/10 07:27:15;;;;;;;8.23;5.97;;;6.80;99.90;;;;;;4384439;32;20058;-56
2021/04/10 07:29:52;;;;;;;8.30;6.85;;;6.80;99.90;;;;;;4389166;32;20445;-57
2021/04/10 07:32:38;;;;;;;10.52;7.90;;;7.00;99.90;;;;;;4366156;32;20057;-56
2021/04/10 07:35:17;;;;;;;8.50;5.67;;;7.10;99.90;;;;;;4388643;32;20072;-55
2021/04/10 07:37:52;;;;;;;9.57;6.40;;;7.50;99.90;;;;;;4389511;32;20248;-57
2021/04/10 07:40:22;;;;;;;6.70;5.20;;;7.60;99.90;;;;;;4374068;32;20070;-57
2021/04/10 07:42:48;;;;;;;9.63;5.45;;;7.90;99.90;;;;;;4377084;32;20440;-57
2021/04/10 07:45:26;;;;;;;11.57;6.57;;;8.10;99.90;;;;;;4367568;32;20085;-57
2021/04/10 07:48:05;;;;;;;9.15;5.53;;;7.60;99.90;;;;;;4388090;32;20084;-56
2021/04/10 07:50:33;;;;;;;7.65;6.12;;;7.80;99.90;;;;;;4379037;32;20073;-58
2021/04/10 07:53:25;;;;;;;8.25;6.32;;;8.00;99.90;;;;;;4381775;32;20655;-58
2021/04/10 07:55:53;;;;;;;9.23;6.10;;;8.10;99.90;;;;;;4389205;32;20162;-59
2021/04/10 07:58:20;;;;;;;8.80;6.40;;;7.90;99.90;;;;;;4377531;32;20066;-56
2021/04/10 08:00:47;;;;;;;8.55;6.12;;;8.20;99.90;;;;;;4379577;32;20105;-56
2021/04/10 08:03:30;;;;;;;9.73;5.72;;;8.10;99.90;;;;;;4351485;32;20066;-56
2021/04/10 08:06:13;;;;;;;8.35;6.00;;;8.60;99.90;;;;;;4382825;32;20078;-57
2021/04/10 08:08:59;;;;;;;8.27;6.43;;;8.40;99.90;;;;;;4380257;32;20066;-57
2021/04/10 08:11:41;;;;;;;8.00;6.43;;;8.60;99.90;;;;;;4376351;32;20074;-56
2021/04/10 08:14:12;;;;;;;7.32;4.80;;;8.70;99.90;;;;;;4387843;32;20066;-58
2021/04/10 08:16:46;;;;;;;9.60;5.47;;;9.00;99.90;;;;;;4393191;32;20085;-58
2021/04/10 08:19:12;;;;;;;8.13;6.00;;;9.30;99.90;;;;;;4379238;32;20501;-58
2021/04/10 08:21:43;;;;;;;10.40;6.68;;;9.20;99.90;;;;;;4352923;32;20441;-56
2021/04/10 08:24:22;;;;;;;7.03;4.68;;;9.20;99.90;;;;;;4364216;32;20074;-58
2021/04/10 08:26:50;;;;;;;6.85;5.37;;;9.20;99.90;;;;;;4387573;32;20085;-57
2021/04/10 08:29:17;;;;;;;7.30;5.72;;;9.00;99.90;;;;;;4365530;32;20149;-57
2021/04/10 08:31:45;;;;;;;6.62;5.53;;;9.20;99.90;;;;;;4375094;32;20077;-57
2021/04/10 08:34:15;;;;;;;9.27;4.25;;;9.10;99.90;;;;;;4369189;32;20105;-56
2021/04/10 08:36:43;;;;;;;7.47;5.30;;;9.40;99.90;;;;;;4375406;32;20065;-57
2021/04/10 08:39:14;;;;;;;7.30;5.50;;;9.40;99.90;;;;;;4392565;32;20074;-58
2021/04/10 08:41:41;;;;;;;7.43;4.82;;;9.20;99.90;;;;;;4356685;32;20086;-55
2021/04/10 08:44:08;;;;;;;6.72;5.32;;;9.30;99.90;;;;;;4359587;32;20063;-57
2021/04/10 08:46:34;;;;;;;6.25;4.30;;;9.40;99.90;;;;;;4386129;32;20073;-57
2021/04/10 08:49:00;;;;;;;6.47;4.50;;;9.70;99.90;;;;;;4378560;32;20086;-57
2021/04/10 08:51:29;;;;;;;5.20;3.45;;;9.80;99.90;;;;;;4388325;32;20074;-55
2021/04/10 08:53:57;;;;;;;7.40;4.37;;;10.10;99.90;;;;;;4383397;32;20088;-56
2021/04/10 08:56:25;;;;;;;8.93;5.15;;;10.10;99.90;;;;;;4383146;32;20090;-57
2021/04/10 08:58:51;;;;;;;5.28;3.62;;;10.10;99.90;;;;;;4379414;32;20077;-56
2021/04/10 09:01:26;;;;;;;7.35;4.47;;;10.30;99.90;;;;;;4384338;32;20133;-56
2021/04/10 09:03:53;;;;;;;5.95;4.18;;;9.90;99.90;;;;;;4387311;32;20100;-57
2021/04/10 09:06:23;;;;;;;5.22;2.97;;;10.10;99.90;;;;;;4384407;32;20078;-57
2021/04/10 09:08:52;;;;;;;6.97;4.07;;;10.40;99.90;;;;;;4381484;32;20094;-57
2021/04/10 09:11:20;;;;;;;8.57;4.85;;;10.50;99.90;;;;;;4376174;32;20081;-56
2021/04/10 09:13:53;;;;;;;6.72;4.62;;;10.60;99.90;;;;;;4386850;32;20073;-56
2021/04/10 09:16:27;;;;;;;7.28;4.82;;;10.60;99.90;;;;;;4384834;32;20070;-56
2021/04/10 09:19:19;;;;;;;7.57;4.72;;;10.70;99.90;;;;;;4389389;32;20076;-57
2021/04/10 09:21:50;;;;;;;6.05;3.72;;;10.70;99.90;;;;;;4380866;32;20082;-57
2021/04/10 09:24:39;;;;;;;6.57;4.22;;;11.00;99.90;;;;;;4382732;32;20081;-57
2021/04/10 09:27:25;;;;;;;6.00;5.07;;;10.90;99.90;;;;;;4388578;32;20081;-56
2021/04/10 09:29:57;;;;;;;7.60;3.80;;;11.30;99.90;;;;;;4377539;32;20073;-56
2021/04/10 09:32:50;;;;;;;6.37;3.08;;;11.30;99.90;;;;;;4378562;32;20590;-57
2021/04/10 09:35:20;;;;;;;5.20;3.35;;;11.60;99.90;;;;;;4385589;32;20113;-57
2021/04/10 09:37:48;;;;;;;6.93;3.12;;;11.30;99.90;;;;;;4378109;32;20174;-57
2021/04/10 09:40:18;;;;;;;6.30;4.32;;;11.60;99.90;;;;;;4376129;32;20062;-56
2021/04/10 09:43:14;;;;;;;6.45;4.53;;;11.70;99.90;;;;;;4383557;32;20109;-56
2021/04/10 09:45:41;;;;;;;5.72;3.80;;;12.00;99.90;;;;;;4372238;32;20161;-56
2021/04/10 09:48:10;;;;;;;4.45;3.62;;;12.20;99.90;;;;;;4357841;32;20165;-57
2021/04/10 09:50:40;;;;;;;7.25;4.10;;;11.90;99.90;;;;;;4392295;32;20066;-57
2021/04/10 09:53:23;;;;;;;7.25;4.60;;;11.80;99.90;;;;;;4379787;32;20086;-57
2021/04/10 09:56:06;;;;;;;6.32;4.35;;;11.80;99.90;;;;;;4373149;32;20073;-57
2021/04/10 09:58:43;;;;;;;7.57;4.87;;;11.80;99.90;;;;;;4378736;32;20081;-57
2021/04/10 10:01:25;;;;;;;7.80;5.05;;;11.80;99.90;;;;;;4382573;32;20143;-56
2021/04/10 10:03:51;;;;;;;6.68;4.60;;;11.90;99.90;;;;;;4384970;32;20078;-57
2021/04/10 10:06:30;;;;;;;6.25;4.37;;;12.00;99.90;;;;;;4384464;32;20543;-56
2021/04/10 10:08:57;;;;;;;6.45;4.75;;;12.10;99.90;;;;;;4366098;32;20074;-56
2021/04/10 10:11:23;;;;;;;7.53;5.53;;;12.10;99.90;;;;;;4350187;32;20059;-55
2021/04/10 10:13:49;;;;;;;6.60;4.35;;;12.10;99.90;;;;;;4374936;32;20086;-56
2021/04/10 10:16:30;;;;;;;8.30;5.60;;;12.00;99.90;;;;;;4383411;32;20160;-56
2021/04/10 10:18:56;;;;;;;7.25;4.80;;;11.90;99.90;;;;;;4380151;32;20429;-56
2021/04/10 10:21:23;;;;;;;7.25;4.72;;;12.00;99.90;;;;;;4375368;32;20074;-57
2021/04/10 10:23:59;;;;;;;7.12;4.72;;;12.00;99.90;;;;;;4379894;32;20078;-58
2021/04/10 10:26:28;;;;;;;6.65;4.20;;;12.10;99.90;;;;;;4368769;32;20069;-57
2021/04/10 10:29:05;;;;;;;5.32;3.20;;;12.10;99.90;;;;;;4378319;32;20077;-56
2021/04/10 10:31:40;;;;;;;5.53;4.10;;;12.00;99.90;;;;;;4374758;32;20088;-57
2021/04/10 10:34:12;;;;;;;6.37;3.95;;;11.90;99.90;;;;;;4357859;32;20069;-57
2021/04/10 10:36:41;;;;;;;6.45;4.00;;;12.00;99.90;;;;;;4380166;32;20058;-57
2021/04/10 10:39:28;;;;;;;5.93;3.97;;;11.90;99.90;;;;;;4387124;32;20076;-57
2021/04/10 10:41:55;;;;;;;7.00;4.03;;;11.90;99.90;;;;;;4381584;32;20154;-57
2021/04/10 10:44:21;;;;;;;4.93;3.83;;;11.90;99.90;;;;;;4372508;32;20076;-55
2021/04/10 10:47:07;;;;;;;6.72;4.40;;;11.90;99.90;;;;;;4364826;32;20085;-57
2021/04/10 10:49:33;;;;;;;8.32;4.25;;;11.80;99.90;;;;;;4379619;32;20073;-57
2021/04/10 10:51:59;;;;;;;6.03;3.78;;;11.90;99.90;;;;;;4359842;32;20523;-58
2021/04/10 10:54:33;;;;;;;6.12;4.50;;;11.90;99.90;;;;;;4373937;32;20080;-58
2021/04/10 10:57:09;;;;;;;7.43;4.80;;;12.10;99.90;;;;;;4380004;32;20177;-56
2021/04/10 10:59:35;;;;;;;;;;;12.40;99.90;;;;;;4373442;32;20074;-57
2021/04/10 11:02:02;;;;;;;7.47;4.20;;;12.30;99.90;;;;;;4380613;32;19976;-57
2021/04/10 11:04:35;;;;;;;5.37;4.05;;;12.30;99.90;;;;;;4381920;32;20092;-56
2021/04/10 11:07:03;;;;;;;9.63;4.43;;;12.00;99.90;;;;;;4387093;32;20096;-57
2021/04/10 11:09:38;;;;;;;8.05;4.55;;;12.20;99.90;;;;;;4365793;32;20468;-58
2021/04/10 11:12:10;;;;;;;6.97;3.85;;;12.20;99.90;;;;;;4363135;32;20101;-57
2021/04/10 11:14:41;;;;;;;8.13;5.85;;;12.00;99.90;;;;;;4376271;32;20508;-56
2021/04/10 11:17:09;;;;;;;8.80;6.65;;;11.20;99.90;;;;;;4378278;32;20081;-57
2021/04/10 11:19:45;;;;;;;7.57;6.05;;;10.70;99.90;;;;;;4353438;32;20521;-57
2021/04/10 11:22:17;;;;;;;6.68;4.95;;;10.40;99.90;;;;;;4382529;32;20185;-58
2021/04/10 11:24:49;;;;;;;3.67;3.00;;;10.20;99.90;;;;;;4385480;32;20074;-58
2021/04/10 11:27:23;;;;;;;10.13;7.22;;;9.80;99.90;;;;;;4364444;32;20149;-57
2021/04/10 11:29:54;;;;;;;10.68;7.05;;;10.00;99.90;;;;;;4374621;32;20070;-57
2021/04/10 11:32:41;;;;;;;10.75;7.47;;;9.90;99.90;;;;;;4368276;32;20093;-57
2021/04/10 11:35:09;;;;;;;9.18;6.53;;;9.50;99.90;;;;;;4389817;32;20160;-57
2021/04/10 11:37:35;;;;;;;8.93;7.53;;;9.40;99.90;;;;;;4381328;32;20162;-58
2021/04/10 11:40:03;;;;;;;7.20;5.32;;;9.40;99.90;;;;;;4387672;32;20102;-58
2021/04/10 11:42:38;;;;;;;8.55;6.28;;;9.50;99.90;;;;;;4388298;32;20563;-57
2021/04/10 11:45:22;;;;;;;11.20;7.28;;;9.50;99.90;;;;;;4396957;32;20220;-58
2021/04/10 11:47:48;;;;;;;6.20;4.65;;;9.70;99.90;;;;;;4375248;32;20073;-56
2021/04/10 11:50:16;;;;;;;9.65;6.37;;;9.80;99.90;;;;;;4384672;32;20215;-58
2021/04/10 11:52:46;;;;;;;7.95;5.25;;;10.10;99.90;;;;;;4369660;32;20062;-56
2021/04/10 11:55:19;;;;;;;8.05;6.15;;;10.40;99.90;;;;;;4389771;32;20078;-57
2021/04/10 11:58:05;;;;;;;8.38;6.12;;;10.30;99.90;;;;;;4382126;32;20088;-58
2021/04/10 12:00:31;;;;;;;8.88;5.95;;;10.40;99.90;;;;;;4369936;32;20533;-58
2021/04/10 12:03:11;;;;;;;8.07;6.22;;;10.40;99.90;;;;;;4390509;32;20561;-56
2021/04/10 12:05:42;;;;;;;8.10;6.03;;;10.60;99.90;;;;;;4356579;32;20066;-56
2021/04/10 12:08:28;;;;;;;8.70;5.28;;;10.60;99.90;;;;;;4386504;32;20081;-56
2021/04/10 12:10:59;;;;;;;6.37;4.60;;;10.70;99.90;;;;;;4377251;32;20067;-57
2021/04/10 12:13:27;;;;;;;8.30;4.60;;;10.40;99.90;;;;;;4378600;32;20109;-57
2021/04/10 12:15:58;;;;;;;6.30;3.97;;;10.30;99.90;;;;;;4385558;32;20238;-56
2021/04/10 12:18:27;;;;;;;7.22;4.78;;;9.80;99.90;;;;;;4385646;32;20170;-57
2021/04/10 12:20:56;;;;;;;11.68;5.82;;;9.50;99.90;;;;;;4368075;32;20066;-57
2021/04/10 12:23:23;;;;;;;6.78;5.50;;;9.20;99.90;;;;;;4389668;32;20485;-57
2021/04/10 12:25:50;;;;;;;8.57;6.47;;;9.00;99.90;;;;;;4369229;32;20516;-56
2021/04/10 12:28:18;;;;;;;10.00;6.72;;;8.80;99.90;;;;;;4377538;32;20189;-57
2021/04/10 12:30:45;;;;;;;21.40;6.28;;;8.80;99.90;;;;;;4368957;32;20074;-57
2021/04/10 12:33:11;;;;;;;10.10;6.25;;;8.40;99.90;;;;;;4376872;32;20159;-57
2021/04/10 12:35:38;;;;;;;6.32;4.70;;;8.10;99.90;;;;;;4371411;32;20139;-56
2021/04/10 12:38:04;;;;;;;9.18;4.95;;;8.00;99.90;;;;;;4384692;32;20146;-56
2021/04/10 12:40:31;;;;;;;7.87;4.18;;;8.20;99.90;;;;;;4386604;32;20081;-57
2021/04/10 12:42:57;;;;;;;5.32;3.30;;;8.00;99.90;;;;;;4370468;32;20489;-57
2021/04/10 12:45:24;;;;;;;6.80;4.62;;;8.10;99.90;;;;;;4378466;32;20061;-56
2021/04/10 12:47:50;;;;;;;7.87;6.47;;;8.20;99.90;;;;;;4379189;32;20073;-57
2021/04/10 12:50:23;;;;;;;8.40;6.25;;;8.00;99.90;;;;;;4385010;32;20078;-57
2021/04/10 12:52:49;;;;;;;8.82;5.07;;;8.00;99.90;;;;;;4378892;32;20065;-56
2021/04/10 12:55:15;;;;;;;10.10;6.60;;;8.00;99.90;;;;;;4376643;32;20104;-56
2021/04/10 12:57:42;;;;;;;8.65;5.78;;;8.00;99.90;;;;;;4365832;32;20573;-57
2021/04/10 13:00:11;;;;;;;7.57;5.47;;;8.10;99.90;;;;;;4382926;32;20074;-57
2021/04/10 13:02:37;;;;;;;7.32;4.07;;;8.20;99.90;;;;;;4371905;32;20501;-55
2021/04/10 13:05:04;;;;;;;6.85;5.80;;;8.30;99.90;;;;;;4376644;32;20074;-58
2021/04/10 13:07:31;;;;;;;6.68;4.72;;;8.20;99.90;;;;;;4375536;32;20161;-56